sensor_id;sensor_type;location;lat;lon;timestamp;temperature;humidity
43949;DHT22;29429;51.074;13.764;2022-10-17T00:00:56;13.10;99.90
43949;DHT22;29429;51.074;13.764;2022-10-17T00:03:23;13.20;99.90
43949;DHT22;29429;51.074;13.764;2022-10-17T00:05:50;13.10;99.90
43949;DHT22;29429;51.074;13.764;2022-10-17T00:08:18;13.10;99.90
43949;DHT22;29429;51.074;13.764;2022-10-17T00:10:55;13.10;99.90
43949;DHT22;29429;51.074;13.764;2022-10-17T00:13:26;13.00;99.90
43949;DHT22;29429;51.074;13.764;2022-10-17T00:15:54;12.90;99.90
43949;DHT22;29429;51.074;13.764;2022-10-17T00:18:21;13.00;99.90
43949;DHT22;29429;51.074;13.764;2022-10-17T00:20:48;12.90;99.90
43949;DHT22;29429;51.074;13.764;2022-10-17T00:23:15;12.90;99.90
43949;DHT22;29429;51.074;13.764;2022-10-17T00:25:43;12.90;99.90
43949;DHT22;29429;51.074;13.764;2022-10-17T00:28:11;12.80;99.90
43949;DHT22;29429;51.074;13.764;2022-10-17T00:30:40;12.80;99.90
43949;DHT22;29429;51.074;13.764;2022-10-17T00:33:07;13.00;99.90
43949;DHT22;29429;51.074;13.764;2022-10-17T00:35:34;12.80;99.90
43949;DHT22;29429;51.074;13.764;2022-10-17T00:38:01;12.80;99.90
43949;DHT22;29429;51.074;13.764;2022-10-17T00:40:28;12.70;99.90
43949;DHT22;29429;51.074;13.764;2022-10-17T00:42:55;12.70;99.90
43949;DHT22;29429;51.074;13.764;2022-10-17T00:45:25;12.70;99.90
43949;DHT22;29429;51.074;13.764;2022-10-17T00:48:00;12.70;99.90
43949;DHT22;29429;51.074;13.764;2022-10-17T00:50:30;12.60;99.90
43949;DHT22;29429;51.074;13.764;2022-10-17T00:53:02;12.60;99.90
43949;DHT22;29429;51.074;13.764;2022-10-17T00:55:34;12.60;99.90
43949;DHT22;29429;51.074;13.764;2022-10-17T00:58:15;12.60;99.90
43949;DHT22;29429;51.074;13.764;2022-10-17T01:00:45;12.70;99.90
43949;DHT22;29429;51.074;13.764;2022-10-17T01:03:14;12.70;99.90
43949;DHT22;29429;51.074;13.764;2022-10-17T01:05:42;12.40;99.90
43949;DHT22;29429;51.074;13.764;2022-10-17T01:08:09;12.40;99.90
43949;DHT22;29429;51.074;13.764;2022-10-17T01:13:41;12.50;99.90
43949;DHT22;29429;51.074;13.764;2022-10-17T01:19:04;12.40;99.90
43949;DHT22;29429;51.074;13.764;2022-10-17T01:21:59;12.50;99.90
43949;DHT22;29429;51.074;13.764;2022-10-17T01:32:07;12.30;99.90
43949;DHT22;29429;51.074;13.764;2022-10-17T01:34:25;12.30;99.90
43949;DHT22;29429;51.074;13.764;2022-10-17T01:40:11;12.30;99.90
43949;DHT22;29429;51.074;13.764;2022-10-17T01:42:56;12.20;99.90
43949;DHT22;29429;51.074;13.764;2022-10-17T01:45:50;12.10;99.90
43949;DHT22;29429;51.074;13.764;2022-10-17T01:48:22;12.10;99.90
43949;DHT22;29429;51.074;13.764;2022-10-17T01:51:00;12.00;99.90
43949;DHT22;29429;51.074;13.764;2022-10-17T01:53:36;12.00;99.90
43949;DHT22;29429;51.074;13.764;2022-10-17T01:56:13;12.00;99.90
43949;DHT22;29429;51.074;13.764;2022-10-17T01:58:48;12.00;99.90
43949;DHT22;29429;51.074;13.764;2022-10-17T02:01:18;12.00;99.90
43949;DHT22;29429;51.074;13.764;2022-10-17T02:03:48;12.00;99.90
43949;DHT22;29429;51.074;13.764;2022-10-17T02:06:17;12.00;99.90
43949;DHT22;29429;51.074;13.764;2022-10-17T02:08:47;11.80;99.90
43949;DHT22;29429;51.074;13.764;2022-10-17T02:11:25;11.90;99.90
43949;DHT22;29429;51.074;13.764;2022-10-17T02:14:15;11.90;99.90
43949;DHT22;29429;51.074;13.764;2022-10-17T02:17:02;11.80;99.90
43949;DHT22;29429;51.074;13.764;2022-10-17T02:22:51;11.80;99.90
43949;DHT22;29429;51.074;13.764;2022-10-17T02:29:04;11.90;99.90
43949;DHT22;29429;51.074;13.764;2022-10-17T02:31:41;11.90;99.90
43949;DHT22;29429;51.074;13.764;2022-10-17T02:34:19;11.90;99.90
43949;DHT22;29429;51.074;13.764;2022-10-17T02:36:55;11.90;99.90
43949;DHT22;29429;51.074;13.764;2022-10-17T02:39:26;11.80;99.90
43949;DHT22;29429;51.074;13.764;2022-10-17T02:41:57;11.80;99.90
43949;DHT22;29429;51.074;13.764;2022-10-17T02:44:30;11.90;99.90
43949;DHT22;29429;51.074;13.764;2022-10-17T02:47:24;11.90;99.90
43949;DHT22;29429;51.074;13.764;2022-10-17T02:49:56;11.90;99.90
43949;DHT22;29429;51.074;13.764;2022-10-17T02:52:28;11.90;99.90
43949;DHT22;29429;51.074;13.764;2022-10-17T02:55:11;11.90;99.90
43949;DHT22;29429;51.074;13.764;2022-10-17T02:57:51;11.90;99.90
43949;DHT22;29429;51.074;13.764;2022-10-17T03:00:24;12.00;99.90
43949;DHT22;29429;51.074;13.764;2022-10-17T03:02:53;12.00;99.90
43949;DHT22;29429;51.074;13.764;2022-10-17T03:05:26;11.90;99.90
43949;DHT22;29429;51.074;13.764;2022-10-17T03:07:55;11.90;99.90
43949;DHT22;29429;51.074;13.764;2022-10-17T03:10:23;11.90;99.90
43949;DHT22;29429;51.074;13.764;2022-10-17T03:12:51;11.80;99.90
43949;DHT22;29429;51.074;13.764;2022-10-17T03:15:18;11.80;99.90
43949;DHT22;29429;51.074;13.764;2022-10-17T03:17:45;11.80;99.90
43949;DHT22;29429;51.074;13.764;2022-10-17T03:20:12;11.80;99.90
43949;DHT22;29429;51.074;13.764;2022-10-17T03:22:39;11.80;99.90
43949;DHT22;29429;51.074;13.764;2022-10-17T03:25:06;11.80;99.90
43949;DHT22;29429;51.074;13.764;2022-10-17T03:27:35;11.70;99.90
43949;DHT22;29429;51.074;13.764;2022-10-17T03:30:02;11.70;99.90
43949;DHT22;29429;51.074;13.764;2022-10-17T03:32:32;11.70;99.90
43949;DHT22;29429;51.074;13.764;2022-10-17T03:35:00;11.70;99.90
43949;DHT22;29429;51.074;13.764;2022-10-17T03:37:27;11.60;99.90
43949;DHT22;29429;51.074;13.764;2022-10-17T03:39:54;11.60;99.90
43949;DHT22;29429;51.074;13.764;2022-10-17T03:42:21;11.60;99.90
43949;DHT22;29429;51.074;13.764;2022-10-17T03:44:49;11.60;99.90
43949;DHT22;29429;51.074;13.764;2022-10-17T03:47:16;11.60;99.90
43949;DHT22;29429;51.074;13.764;2022-10-17T03:49:44;11.60;99.90
43949;DHT22;29429;51.074;13.764;2022-10-17T03:52:12;11.60;99.90
43949;DHT22;29429;51.074;13.764;2022-10-17T03:54:39;11.60;99.90
43949;DHT22;29429;51.074;13.764;2022-10-17T03:57:06;11.70;99.90
43949;DHT22;29429;51.074;13.764;2022-10-17T03:59:35;11.70;99.90
43949;DHT22;29429;51.074;13.764;2022-10-17T04:02:08;11.70;99.90
43949;DHT22;29429;51.074;13.764;2022-10-17T04:04:35;11.70;99.90
43949;DHT22;29429;51.074;13.764;2022-10-17T04:07:02;11.70;99.90
43949;DHT22;29429;51.074;13.764;2022-10-17T04:09:29;11.80;99.90
43949;DHT22;29429;51.074;13.764;2022-10-17T04:12:19;11.80;99.90
43949;DHT22;29429;51.074;13.764;2022-10-17T04:14:46;11.80;99.90
43949;DHT22;29429;51.074;13.764;2022-10-17T04:17:15;11.80;99.90
43949;DHT22;29429;51.074;13.764;2022-10-17T04:19:43;11.90;99.90
43949;DHT22;29429;51.074;13.764;2022-10-17T04:22:10;11.90;99.90
43949;DHT22;29429;51.074;13.764;2022-10-17T04:24:38;11.90;99.90
43949;DHT22;29429;51.074;13.764;2022-10-17T04:27:25;11.90;99.90
43949;DHT22;29429;51.074;13.764;2022-10-17T04:29:52;11.90;99.90
43949;DHT22;29429;51.074;13.764;2022-10-17T04:32:22;11.90;99.90
43949;DHT22;29429;51.074;13.764;2022-10-17T04:35:05;11.90;99.90
43949;DHT22;29429;51.074;13.764;2022-10-17T04:37:32;11.90;99.90
43949;DHT22;29429;51.074;13.764;2022-10-17T04:40:06;11.90;99.90
43949;DHT22;29429;51.074;13.764;2022-10-17T04:42:34;11.90;99.90
43949;DHT22;29429;51.074;13.764;2022-10-17T04:45:03;11.90;99.90
43949;DHT22;29429;51.074;13.764;2022-10-17T04:47:31;11.90;99.90
43949;DHT22;29429;51.074;13.764;2022-10-17T04:49:58;11.90;99.90
43949;DHT22;29429;51.074;13.764;2022-10-17T04:52:25;11.80;99.90
43949;DHT22;29429;51.074;13.764;2022-10-17T04:54:53;11.80;99.90
43949;DHT22;29429;51.074;13.764;2022-10-17T04:57:20;11.80;99.90
43949;DHT22;29429;51.074;13.764;2022-10-17T05:00:04;11.80;99.90
43949;DHT22;29429;51.074;13.764;2022-10-17T05:02:56;11.80;99.90
43949;DHT22;29429;51.074;13.764;2022-10-17T05:05:22;11.60;99.90
43949;DHT22;29429;51.074;13.764;2022-10-17T05:07:52;11.70;99.90
43949;DHT22;29429;51.074;13.764;2022-10-17T05:10:24;11.80;99.90
43949;DHT22;29429;51.074;13.764;2022-10-17T05:12:52;11.70;99.90
43949;DHT22;29429;51.074;13.764;2022-10-17T05:15:22;11.60;99.90
43949;DHT22;29429;51.074;13.764;2022-10-17T05:17:56;11.60;99.90
43949;DHT22;29429;51.074;13.764;2022-10-17T05:20:25;11.60;99.90
43949;DHT22;29429;51.074;13.764;2022-10-17T05:22:53;11.60;99.90
43949;DHT22;29429;51.074;13.764;2022-10-17T05:25:20;11.50;99.90
43949;DHT22;29429;51.074;13.764;2022-10-17T05:27:48;11.50;99.90
43949;DHT22;29429;51.074;13.764;2022-10-17T05:30:16;11.50;99.90
43949;DHT22;29429;51.074;13.764;2022-10-17T05:32:44;11.50;99.90
43949;DHT22;29429;51.074;13.764;2022-10-17T05:35:10;11.50;99.90
43949;DHT22;29429;51.074;13.764;2022-10-17T05:37:38;11.50;99.90
43949;DHT22;29429;51.074;13.764;2022-10-17T05:40:05;11.50;99.90
43949;DHT22;29429;51.074;13.764;2022-10-17T05:42:33;11.50;99.90
43949;DHT22;29429;51.074;13.764;2022-10-17T05:45:01;11.40;99.90
43949;DHT22;29429;51.074;13.764;2022-10-17T05:47:29;11.50;99.90
43949;DHT22;29429;51.074;13.764;2022-10-17T05:49:57;11.50;99.90
43949;DHT22;29429;51.074;13.764;2022-10-17T05:52:35;11.70;99.90
43949;DHT22;29429;51.074;13.764;2022-10-17T05:55:09;11.60;99.90
43949;DHT22;29429;51.074;13.764;2022-10-17T05:57:36;11.60;99.90
43949;DHT22;29429;51.074;13.764;2022-10-17T06:00:25;11.70;99.90
43949;DHT22;29429;51.074;13.764;2022-10-17T06:02:56;11.70;99.90
43949;DHT22;29429;51.074;13.764;2022-10-17T06:05:23;11.80;99.90
43949;DHT22;29429;51.074;13.764;2022-10-17T06:07:51;11.80;99.90
43949;DHT22;29429;51.074;13.764;2022-10-17T06:10:24;11.80;99.90
43949;DHT22;29429;51.074;13.764;2022-10-17T06:12:51;12.00;99.90
43949;DHT22;29429;51.074;13.764;2022-10-17T06:15:19;11.90;99.90
43949;DHT22;29429;51.074;13.764;2022-10-17T06:17:52;11.90;99.90
43949;DHT22;29429;51.074;13.764;2022-10-17T06:20:20;12.00;99.90
43949;DHT22;29429;51.074;13.764;2022-10-17T06:22:47;12.10;99.90
43949;DHT22;29429;51.074;13.764;2022-10-17T06:25:22;12.20;99.90
43949;DHT22;29429;51.074;13.764;2022-10-17T06:27:50;12.30;99.90
43949;DHT22;29429;51.074;13.764;2022-10-17T06:30:16;12.30;99.90
43949;DHT22;29429;51.074;13.764;2022-10-17T06:32:44;12.40;99.90
43949;DHT22;29429;51.074;13.764;2022-10-17T06:35:11;12.50;99.90
43949;DHT22;29429;51.074;13.764;2022-10-17T06:37:39;12.40;99.90
43949;DHT22;29429;51.074;13.764;2022-10-17T06:40:08;12.60;99.90
43949;DHT22;29429;51.074;13.764;2022-10-17T06:42:38;12.70;99.90
43949;DHT22;29429;51.074;13.764;2022-10-17T06:45:24;12.80;99.90
43949;DHT22;29429;51.074;13.764;2022-10-17T06:48:07;12.80;99.90
43949;DHT22;29429;51.074;13.764;2022-10-17T06:51:02;12.90;99.90
43949;DHT22;29429;51.074;13.764;2022-10-17T06:53:36;13.00;99.90
43949;DHT22;29429;51.074;13.764;2022-10-17T06:56:23;13.10;99.90
43949;DHT22;29429;51.074;13.764;2022-10-17T06:59:19;13.20;99.90
43949;DHT22;29429;51.074;13.764;2022-10-17T07:01:51;13.30;99.90
43949;DHT22;29429;51.074;13.764;2022-10-17T07:04:18;13.40;99.90
43949;DHT22;29429;51.074;13.764;2022-10-17T07:06:45;13.50;99.90
43949;DHT22;29429;51.074;13.764;2022-10-17T07:09:18;13.60;99.90
43949;DHT22;29429;51.074;13.764;2022-10-17T07:11:45;13.70;99.90
43949;DHT22;29429;51.074;13.764;2022-10-17T07:14:15;13.80;99.90
43949;DHT22;29429;51.074;13.764;2022-10-17T07:16:42;13.80;99.90
43949;DHT22;29429;51.074;13.764;2022-10-17T07:19:17;13.90;99.90
43949;DHT22;29429;51.074;13.764;2022-10-17T07:21:44;14.00;99.90
43949;DHT22;29429;51.074;13.764;2022-10-17T07:24:11;14.00;99.90
43949;DHT22;29429;51.074;13.764;2022-10-17T07:26:41;14.10;99.90
43949;DHT22;29429;51.074;13.764;2022-10-17T07:29:09;14.20;99.90
43949;DHT22;29429;51.074;13.764;2022-10-17T07:31:41;14.20;99.90
43949;DHT22;29429;51.074;13.764;2022-10-17T07:34:08;14.30;99.90
43949;DHT22;29429;51.074;13.764;2022-10-17T07:36:35;14.40;99.90
43949;DHT22;29429;51.074;13.764;2022-10-17T07:39:04;14.50;99.90
43949;DHT22;29429;51.074;13.764;2022-10-17T07:41:32;14.60;99.90
43949;DHT22;29429;51.074;13.764;2022-10-17T07:43:58;14.70;99.90
43949;DHT22;29429;51.074;13.764;2022-10-17T07:46:31;14.90;99.90
43949;DHT22;29429;51.074;13.764;2022-10-17T07:48:58;15.00;99.90
43949;DHT22;29429;51.074;13.764;2022-10-17T07:51:25;15.10;99.90
43949;DHT22;29429;51.074;13.764;2022-10-17T07:53:53;15.20;99.90
43949;DHT22;29429;51.074;13.764;2022-10-17T07:56:20;15.30;99.90
43949;DHT22;29429;51.074;13.764;2022-10-17T07:58:50;15.40;99.90
43949;DHT22;29429;51.074;13.764;2022-10-17T08:01:18;15.50;99.90
43949;DHT22;29429;51.074;13.764;2022-10-17T08:03:45;15.60;99.90
43949;DHT22;29429;51.074;13.764;2022-10-17T08:06:14;15.80;99.90
43949;DHT22;29429;51.074;13.764;2022-10-17T08:08:41;15.80;99.90
43949;DHT22;29429;51.074;13.764;2022-10-17T08:11:09;15.90;99.90
43949;DHT22;29429;51.074;13.764;2022-10-17T08:13:37;16.10;99.90
43949;DHT22;29429;51.074;13.764;2022-10-17T08:16:06;16.20;99.90
43949;DHT22;29429;51.074;13.764;2022-10-17T08:18:35;16.30;99.90
43949;DHT22;29429;51.074;13.764;2022-10-17T08:21:04;16.40;99.90
43949;DHT22;29429;51.074;13.764;2022-10-17T08:23:33;16.50;99.90
43949;DHT22;29429;51.074;13.764;2022-10-17T08:26:02;16.60;99.90
43949;DHT22;29429;51.074;13.764;2022-10-17T08:28:33;16.80;99.90
43949;DHT22;29429;51.074;13.764;2022-10-17T08:31:02;16.90;99.90
43949;DHT22;29429;51.074;13.764;2022-10-17T08:33:30;16.90;99.90
43949;DHT22;29429;51.074;13.764;2022-10-17T08:35:59;17.00;99.90
43949;DHT22;29429;51.074;13.764;2022-10-17T08:38:29;17.10;99.90
43949;DHT22;29429;51.074;13.764;2022-10-17T08:41:02;17.10;99.90
43949;DHT22;29429;51.074;13.764;2022-10-17T08:46:42;17.20;99.90
43949;DHT22;29429;51.074;13.764;2022-10-17T08:49:19;17.30;99.90
43949;DHT22;29429;51.074;13.764;2022-10-17T08:55:12;17.40;99.90
43949;DHT22;29429;51.074;13.764;2022-10-17T08:57:44;17.50;99.90
43949;DHT22;29429;51.074;13.764;2022-10-17T09:00:17;17.50;99.90
43949;DHT22;29429;51.074;13.764;2022-10-17T09:05:36;17.70;99.90
43949;DHT22;29429;51.074;13.764;2022-10-17T09:10:57;17.80;99.90
43949;DHT22;29429;51.074;13.764;2022-10-17T09:18:55;17.90;99.90
43949;DHT22;29429;51.074;13.764;2022-10-17T09:21:41;18.00;99.90
43949;DHT22;29429;51.074;13.764;2022-10-17T09:24:16;18.00;99.90
43949;DHT22;29429;51.074;13.764;2022-10-17T09:26:50;18.00;99.90
43949;DHT22;29429;51.074;13.764;2022-10-17T09:29:24;18.00;99.90
43949;DHT22;29429;51.074;13.764;2022-10-17T09:34:30;18.00;99.90
43949;DHT22;29429;51.074;13.764;2022-10-17T09:36:58;18.00;99.90
43949;DHT22;29429;51.074;13.764;2022-10-17T09:39:27;18.00;99.90
43949;DHT22;29429;51.074;13.764;2022-10-17T09:42:00;18.00;99.90
43949;DHT22;29429;51.074;13.764;2022-10-17T09:44:32;18.00;99.90
43949;DHT22;29429;51.074;13.764;2022-10-17T09:49:46;18.10;99.90
43949;DHT22;29429;51.074;13.764;2022-10-17T09:52:23;18.10;99.90
43949;DHT22;29429;51.074;13.764;2022-10-17T09:55:04;18.10;99.90
43949;DHT22;29429;51.074;13.764;2022-10-17T09:57:55;18.10;99.90
43949;DHT22;29429;51.074;13.764;2022-10-17T10:00:30;18.10;99.90
43949;DHT22;29429;51.074;13.764;2022-10-17T10:03:19;18.20;99.90
43949;DHT22;29429;51.074;13.764;2022-10-17T10:08:33;18.20;99.90
43949;DHT22;29429;51.074;13.764;2022-10-17T10:11:06;18.30;99.90
43949;DHT22;29429;51.074;13.764;2022-10-17T10:13:39;18.30;99.90
43949;DHT22;29429;51.074;13.764;2022-10-17T10:16:13;18.30;99.90
43949;DHT22;29429;51.074;13.764;2022-10-17T10:18:43;18.30;99.90
43949;DHT22;29429;51.074;13.764;2022-10-17T10:24:01;18.40;99.90
43949;DHT22;29429;51.074;13.764;2022-10-17T10:26:32;18.40;99.90
43949;DHT22;29429;51.074;13.764;2022-10-17T10:31:48;18.50;99.90
43949;DHT22;29429;51.074;13.764;2022-10-17T10:34:26;18.70;99.90
43949;DHT22;29429;51.074;13.764;2022-10-17T10:36:57;18.60;99.90
43949;DHT22;29429;51.074;13.764;2022-10-17T10:42:03;18.60;99.90
43949;DHT22;29429;51.074;13.764;2022-10-17T10:44:33;18.70;99.90
43949;DHT22;29429;51.074;13.764;2022-10-17T10:47:13;18.70;99.90
43949;DHT22;29429;51.074;13.764;2022-10-17T10:49:41;18.80;99.90
43949;DHT22;29429;51.074;13.764;2022-10-17T10:52:10;18.80;99.90
43949;DHT22;29429;51.074;13.764;2022-10-17T10:54:49;18.90;99.90
43949;DHT22;29429;51.074;13.764;2022-10-17T10:57:21;18.80;99.90
43949;DHT22;29429;51.074;13.764;2022-10-17T10:59:59;18.90;99.90
43949;DHT22;29429;51.074;13.764;2022-10-17T11:13:36;19.00;99.90
43949;DHT22;29429;51.074;13.764;2022-10-17T11:19:07;19.10;99.90
43949;DHT22;29429;51.074;13.764;2022-10-17T11:21:47;19.10;99.90
43949;DHT22;29429;51.074;13.764;2022-10-17T11:24:26;19.20;99.90
43949;DHT22;29429;51.074;13.764;2022-10-17T11:27:08;19.20;99.90
43949;DHT22;29429;51.074;13.764;2022-10-17T11:29:39;19.20;99.90
43949;DHT22;29429;51.074;13.764;2022-10-17T11:32:09;19.20;99.90
43949;DHT22;29429;51.074;13.764;2022-10-17T11:34:40;19.20;99.90
43949;DHT22;29429;51.074;13.764;2022-10-17T11:37:13;19.30;99.90
43949;DHT22;29429;51.074;13.764;2022-10-17T11:42:19;19.40;99.90
43949;DHT22;29429;51.074;13.764;2022-10-17T11:44:51;19.50;99.90
43949;DHT22;29429;51.074;13.764;2022-10-17T11:53:21;19.50;99.90
43949;DHT22;29429;51.074;13.764;2022-10-17T11:55:51;19.60;99.90
43949;DHT22;29429;51.074;13.764;2022-10-17T11:58:34;19.60;99.90
43949;DHT22;29429;51.074;13.764;2022-10-17T12:03:47;19.70;99.90
43949;DHT22;29429;51.074;13.764;2022-10-17T12:17:27;20.00;99.90
43949;DHT22;29429;51.074;13.764;2022-10-17T12:22:47;20.20;99.90
43949;DHT22;29429;51.074;13.764;2022-10-17T12:25:34;20.40;99.90
43949;DHT22;29429;51.074;13.764;2022-10-17T12:30:59;20.70;99.90
43949;DHT22;29429;51.074;13.764;2022-10-17T12:57:41;21.50;99.90
43949;DHT22;29429;51.074;13.764;2022-10-17T13:00:28;21.50;99.90
43949;DHT22;29429;51.074;13.764;2022-10-17T13:03:32;21.50;99.90
43949;DHT22;29429;51.074;13.764;2022-10-17T13:06:06;21.50;99.90
43949;DHT22;29429;51.074;13.764;2022-10-17T13:08:37;21.40;99.90
43949;DHT22;29429;51.074;13.764;2022-10-17T13:11:08;21.40;99.90
43949;DHT22;29429;51.074;13.764;2022-10-17T13:16:30;21.40;99.90
43949;DHT22;29429;51.074;13.764;2022-10-17T13:19:11;21.20;99.90
43949;DHT22;29429;51.074;13.764;2022-10-17T13:21:52;21.20;99.90
43949;DHT22;29429;51.074;13.764;2022-10-17T13:24:32;21.10;99.90
43949;DHT22;29429;51.074;13.764;2022-10-17T13:27:01;21.10;99.90
43949;DHT22;29429;51.074;13.764;2022-10-17T13:29:29;21.00;99.90
43949;DHT22;29429;51.074;13.764;2022-10-17T13:31:58;21.00;99.90
43949;DHT22;29429;51.074;13.764;2022-10-17T13:34:27;20.90;99.90
43949;DHT22;29429;51.074;13.764;2022-10-17T13:36:55;20.80;99.90
43949;DHT22;29429;51.074;13.764;2022-10-17T13:39:25;20.70;99.90
43949;DHT22;29429;51.074;13.764;2022-10-17T13:42:44;20.70;99.90
43949;DHT22;29429;51.074;13.764;2022-10-17T13:45:09;20.60;99.90
43949;DHT22;29429;51.074;13.764;2022-10-17T13:47:43;20.60;99.90
43949;DHT22;29429;51.074;13.764;2022-10-17T13:50:30;20.60;99.90
43949;DHT22;29429;51.074;13.764;2022-10-17T13:58:54;20.40;99.90
43949;DHT22;29429;51.074;13.764;2022-10-17T14:01:24;20.30;99.90
43949;DHT22;29429;51.074;13.764;2022-10-17T14:03:54;20.20;99.90
43949;DHT22;29429;51.074;13.764;2022-10-17T14:06:33;20.20;99.90
43949;DHT22;29429;51.074;13.764;2022-10-17T14:09:29;20.10;99.90
43949;DHT22;29429;51.074;13.764;2022-10-17T14:12:00;20.00;99.90
43949;DHT22;29429;51.074;13.764;2022-10-17T14:14:32;20.20;99.90
43949;DHT22;29429;51.074;13.764;2022-10-17T14:17:25;20.00;99.90
43949;DHT22;29429;51.074;13.764;2022-10-17T14:20:03;19.90;99.90
43949;DHT22;29429;51.074;13.764;2022-10-17T14:22:51;19.90;99.90
43949;DHT22;29429;51.074;13.764;2022-10-17T14:25:39;19.90;99.90
43949;DHT22;29429;51.074;13.764;2022-10-17T14:33:28;19.80;99.90
43949;DHT22;29429;51.074;13.764;2022-10-17T14:35:57;19.80;99.90
43949;DHT22;29429;51.074;13.764;2022-10-17T14:38:26;19.80;99.90
43949;DHT22;29429;51.074;13.764;2022-10-17T14:40:57;19.70;99.90
43949;DHT22;29429;51.074;13.764;2022-10-17T14:43:55;19.70;99.90
43949;DHT22;29429;51.074;13.764;2022-10-17T14:46:24;19.50;99.90
43949;DHT22;29429;51.074;13.764;2022-10-17T14:48:58;19.50;99.90
43949;DHT22;29429;51.074;13.764;2022-10-17T14:51:32;19.50;99.90
43949;DHT22;29429;51.074;13.764;2022-10-17T14:54:18;19.70;99.90
43949;DHT22;29429;51.074;13.764;2022-10-17T14:56:51;19.50;99.90
43949;DHT22;29429;51.074;13.764;2022-10-17T14:59:19;19.50;99.90
43949;DHT22;29429;51.074;13.764;2022-10-17T15:02:09;19.40;99.90
43949;DHT22;29429;51.074;13.764;2022-10-17T15:04:37;19.40;99.90
43949;DHT22;29429;51.074;13.764;2022-10-17T15:07:04;19.30;99.90
43949;DHT22;29429;51.074;13.764;2022-10-17T15:09:31;19.20;99.90
43949;DHT22;29429;51.074;13.764;2022-10-17T15:12:01;19.20;99.90
43949;DHT22;29429;51.074;13.764;2022-10-17T15:14:30;19.20;99.90
43949;DHT22;29429;51.074;13.764;2022-10-17T15:16:57;19.00;99.90
43949;DHT22;29429;51.074;13.764;2022-10-17T15:19:26;19.00;99.90
43949;DHT22;29429;51.074;13.764;2022-10-17T15:21:53;18.80;99.90
43949;DHT22;29429;51.074;13.764;2022-10-17T15:24:20;18.90;99.90
43949;DHT22;29429;51.074;13.764;2022-10-17T15:26:47;18.90;99.90
43949;DHT22;29429;51.074;13.764;2022-10-17T15:29:15;18.70;99.90
43949;DHT22;29429;51.074;13.764;2022-10-17T15:31:44;18.70;99.90
43949;DHT22;29429;51.074;13.764;2022-10-17T15:34:11;18.60;99.90
43949;DHT22;29429;51.074;13.764;2022-10-17T15:36:39;18.50;99.90
43949;DHT22;29429;51.074;13.764;2022-10-17T15:39:08;18.40;99.90
43949;DHT22;29429;51.074;13.764;2022-10-17T15:41:35;18.40;99.90
43949;DHT22;29429;51.074;13.764;2022-10-17T15:44:02;18.30;99.90
43949;DHT22;29429;51.074;13.764;2022-10-17T15:46:31;18.30;99.90
43949;DHT22;29429;51.074;13.764;2022-10-17T15:49:03;18.20;99.90
43949;DHT22;29429;51.074;13.764;2022-10-17T15:51:33;18.10;99.90
43949;DHT22;29429;51.074;13.764;2022-10-17T15:53:59;18.10;99.90
43949;DHT22;29429;51.074;13.764;2022-10-17T15:56:27;18.00;99.90
43949;DHT22;29429;51.074;13.764;2022-10-17T15:58:57;18.10;99.90
43949;DHT22;29429;51.074;13.764;2022-10-17T16:01:25;17.90;99.90
43949;DHT22;29429;51.074;13.764;2022-10-17T16:03:53;17.70;99.90
43949;DHT22;29429;51.074;13.764;2022-10-17T16:06:21;17.70;99.90
43949;DHT22;29429;51.074;13.764;2022-10-17T16:08:49;17.70;99.90
43949;DHT22;29429;51.074;13.764;2022-10-17T16:11:26;17.60;99.90
43949;DHT22;29429;51.074;13.764;2022-10-17T16:14:00;17.50;99.90
43949;DHT22;29429;51.074;13.764;2022-10-17T16:16:29;17.40;99.90
43949;DHT22;29429;51.074;13.764;2022-10-17T16:18:56;17.40;99.90
43949;DHT22;29429;51.074;13.764;2022-10-17T16:21:24;17.40;99.90
43949;DHT22;29429;51.074;13.764;2022-10-17T16:23:53;17.30;99.90
43949;DHT22;29429;51.074;13.764;2022-10-17T16:26:22;17.20;99.90
43949;DHT22;29429;51.074;13.764;2022-10-17T16:28:49;17.20;99.90
43949;DHT22;29429;51.074;13.764;2022-10-17T16:31:18;17.10;99.90
43949;DHT22;29429;51.074;13.764;2022-10-17T16:33:47;17.00;99.90
43949;DHT22;29429;51.074;13.764;2022-10-17T16:36:15;16.80;99.90
43949;DHT22;29429;51.074;13.764;2022-10-17T16:38:42;16.90;99.90
43949;DHT22;29429;51.074;13.764;2022-10-17T16:41:18;16.80;99.90
43949;DHT22;29429;51.074;13.764;2022-10-17T16:43:48;16.80;99.90
43949;DHT22;29429;51.074;13.764;2022-10-17T16:46:16;16.70;99.90
43949;DHT22;29429;51.074;13.764;2022-10-17T16:48:44;16.70;99.90
43949;DHT22;29429;51.074;13.764;2022-10-17T16:51:12;16.60;99.90
43949;DHT22;29429;51.074;13.764;2022-10-17T16:53:39;16.60;99.90
43949;DHT22;29429;51.074;13.764;2022-10-17T16:56:10;16.50;99.90
43949;DHT22;29429;51.074;13.764;2022-10-17T16:58:39;16.50;99.90
43949;DHT22;29429;51.074;13.764;2022-10-17T17:01:08;16.40;99.90
43949;DHT22;29429;51.074;13.764;2022-10-17T17:03:37;16.40;99.90
43949;DHT22;29429;51.074;13.764;2022-10-17T17:06:05;16.20;99.90
43949;DHT22;29429;51.074;13.764;2022-10-17T17:08:34;16.30;99.90
43949;DHT22;29429;51.074;13.764;2022-10-17T17:11:06;16.20;99.90
43949;DHT22;29429;51.074;13.764;2022-10-17T17:13:34;16.20;99.90
43949;DHT22;29429;51.074;13.764;2022-10-17T17:16:03;16.20;99.90
43949;DHT22;29429;51.074;13.764;2022-10-17T17:18:33;16.20;99.90
43949;DHT22;29429;51.074;13.764;2022-10-17T17:21:00;16.20;99.90
43949;DHT22;29429;51.074;13.764;2022-10-17T17:23:29;16.10;99.90
43949;DHT22;29429;51.074;13.764;2022-10-17T17:25:58;16.20;99.90
43949;DHT22;29429;51.074;13.764;2022-10-17T17:28:27;16.10;99.90
43949;DHT22;29429;51.074;13.764;2022-10-17T17:30:54;16.00;99.90
43949;DHT22;29429;51.074;13.764;2022-10-17T17:33:22;15.90;99.90
43949;DHT22;29429;51.074;13.764;2022-10-17T17:35:53;16.00;99.90
43949;DHT22;29429;51.074;13.764;2022-10-17T17:38:21;16.00;99.90
43949;DHT22;29429;51.074;13.764;2022-10-17T17:40:49;15.90;99.90
43949;DHT22;29429;51.074;13.764;2022-10-17T17:43:17;15.90;99.90
43949;DHT22;29429;51.074;13.764;2022-10-17T17:45:44;15.90;99.90
43949;DHT22;29429;51.074;13.764;2022-10-17T17:48:12;15.80;99.90
43949;DHT22;29429;51.074;13.764;2022-10-17T17:50:39;15.80;99.90
43949;DHT22;29429;51.074;13.764;2022-10-17T17:53:07;15.80;99.90
43949;DHT22;29429;51.074;13.764;2022-10-17T17:55:35;15.70;99.90
43949;DHT22;29429;51.074;13.764;2022-10-17T17:58:02;15.70;99.90
43949;DHT22;29429;51.074;13.764;2022-10-17T18:00:30;15.60;99.90